Portada
METAR-TAF:

METAR-TAF

Aeropuertos :

Vinton Veterans Memorial Airpark

Vinton, Iowa, Estados Unidos

latitud: 42-13-07N, longitud: 092-01-33W, altitud: 258 m

Observación

El informe se hizo hace 19 minutos, a las 07:55 UTC
Viento calma
Temperatura 12°C
Humedad 82%
Presión 1025 hPa
Visibilidad: 16.1 km
Cielo despejado

METAR: KVTI 310755Z AUTO 00000KT 10SM CLR 12/09 A3028 RMK AO2 T01150088

Hora: 03:14 (08:14 UTC)


TAF: falta

Observaciones y pronósticos meteorológicos de más de 4000 aeropuertos (mensajes METAR y TAF).

Los puntos amarillos y rojos representan las estaciones disponibles.

Ponga el ratón en el punto deseado para ver el nombre de la estación.

Haga clic para ver las observaciones y los pronósticos meteorológicos.

Para cambiar el mapa : haga clic en los botones verdes con una cruz de color negro para hacer un zoom, en el botón verde con un guión para alejar o en las flechas verdes para mapas adyacentes.


METAR-TAF: